Главная страница
METAR-TAF:

METAR-TAF

Аэропорты :

Мушёэн, Норвегия

широта: 65-48N, долгота: 013-08E, высота над уровнем моря: 70 м

Текущие метеонаблюдения

Эта сводка был подготовлена 31 минут назад, в 16:20 UTC
Ветер 8 Узел от южный
Температура 13°C
Влажность 58%
Давление 1009 hPa
Видимость 10 км и более
Нет облачности ниже 1500 м, и нет кучево-дождевой облачности

METAR: ENMS 141620Z 19008KT CAVOK 13/05 Q1009 RMK WIND 412FT VRB05KT

Время: 18:51 (16:51 UTC)


TAF: отсутствует

Метеонаблюдения и прогнозы для более 4000 аэропортов (сводки METAR и TAF).

Имеющиеся станции представлены на карте желтыми и красными точками.

Чтобы увидеть название станции, наведите на нее мышь.

Затем щелкните, чтобы увидеть метеонаблюдения и метеопрогнозы.

Управление картой: чтобы увеличить масштаб, щелкните зеленые кнопки с черным крестиком; чтобы уменьшить масштаб, щелкните зеленую кнопку с тире; для просмотра соседних карт щелкайте зеленые стрелки.


METAR-TAF: